Arnold, California
Current Conditions -  °F | °C
As of 4:35 AM on Sunday 23 Nov 2014 (Local Time) from KO22 Reporting Station
Clear Clear  
Wind Chill: 34°   Ceiling: Unl
Heat Index: 37°   Visibility: 10mi
Dew Point: 37°   Wind: 5mph
Humidity: 100%   Direction: 340°NNW
Pressure: 30.19"   Gusts: NA
Location:  38.23°N, 120.37°W
Report Text: KO22 231235Z AUTO 34004KT 10SM CLR 03/03 A3019 RMK AO1
Loading
Personal Weather Stations






























Interactive Weather Map New forecast layout! Learn more

10-Day Weather Forecast

Advertisements
Track Severe Weather on mobile